Time;durP1;ratioP1;P1;durP2;ratioP2;P2;SDS_P1;SDS_P2;PMS_P1;PMS_P2;Temp;Humidity;BMP_temperature;BMP_pressure;BME280_temperature;BME280_humidity;BME280_pressure;Samples;Min_cycle;Max_cycle;Signal;HPM_P1;HPM_P2
2023/03/10 00:01:10;;;;;;;7.00;3.05;;;10.60;71.60;;;;;;5054756;28;20465;-69
2023/03/10 00:03:36;;;;;;;6.07;2.95;;;10.50;71.50;;;;;;5054415;28;20021;-69
2023/03/10 00:06:02;;;;;;;4.75;2.83;;;10.40;71.60;;;;;;5054651;28;20086;-69
2023/03/10 00:08:27;;;;;;;7.82;3.28;;;10.40;71.40;;;;;;5036795;28;20021;-69
2023/03/10 00:10:53;;;;;;;6.13;3.13;;;10.30;71.30;;;;;;5037129;28;20518;-69
2023/03/10 00:13:18;;;;;;;7.43;2.72;;;10.30;71.80;;;;;;5054861;28;20057;-69
2023/03/10 00:15:44;;;;;;;8.65;2.67;;;10.30;71.20;;;;;;5054263;28;20079;-69
2023/03/10 00:18:10;;;;;;;5.82;2.92;;;10.20;71.20;;;;;;5036668;28;20036;-69
2023/03/10 00:20:35;;;;;;;5.38;2.70;;;10.20;71.10;;;;;;5054289;28;20029;-69
2023/03/10 00:23:01;;;;;;;4.88;2.60;;;10.20;71.10;;;;;;5039670;28;20029;-68
2023/03/10 00:25:26;;;;;;;6.15;2.88;;;10.20;70.90;;;;;;5033880;28;20041;-69
2023/03/10 00:27:52;;;;;;;5.90;2.83;;;10.10;70.70;;;;;;5034555;28;20033;-68
2023/03/10 00:30:18;;;;;;;5.28;2.42;;;10.10;70.40;;;;;;5034522;28;20382;-68
2023/03/10 00:32:44;;;;;;;6.07;2.80;;;10.10;70.40;;;;;;5033917;28;20377;-68
2023/03/10 00:35:09;;;;;;;7.07;2.97;;;10.10;70.00;;;;;;5034274;28;20022;-69
2023/03/10 00:37:37;;;;;;;4.05;1.80;;;10.10;69.50;;;;;;5033884;28;20056;-69
2023/03/10 00:40:05;;;;;;;7.80;2.40;;;10.10;68.90;;;;;;5034505;28;20445;-69
2023/03/10 00:42:31;;;;;;;5.30;2.22;;;10.10;68.70;;;;;;5033787;28;20367;-69
2023/03/10 00:44:57;;;;;;;3.45;1.73;;;10.10;68.40;;;;;;5033875;28;20022;-68
2023/03/10 00:47:22;;;;;;;5.35;2.53;;;10.10;68.60;;;;;;5036137;28;20072;-69
2023/03/10 00:49:48;;;;;;;5.57;1.60;;;10.10;68.20;;;;;;5053280;28;20056;-69
2023/03/10 00:52:14;;;;;;;4.70;1.70;;;10.10;67.70;;;;;;5054257;28;20033;-69
2023/03/10 00:54:40;;;;;;;2.85;1.38;;;10.10;66.80;;;;;;5052552;28;20032;-69
2023/03/10 00:57:07;;;;;;;2.42;1.50;;;10.20;66.50;;;;;;5053931;28;20033;-69
2023/03/10 00:59:33;;;;;;;4.55;1.70;;;10.20;66.10;;;;;;5053581;28;20021;-68
2023/03/10 01:01:59;;;;;;;7.75;1.88;;;10.20;66.10;;;;;;5054137;28;20037;-68
2023/03/10 01:04:24;;;;;;;3.60;1.50;;;10.30;65.80;;;;;;5055215;28;20021;-68
2023/03/10 01:06:50;;;;;;;3.67;1.63;;;10.30;64.90;;;;;;5054421;28;20028;-69
2023/03/10 01:09:16;;;;;;;3.83;1.40;;;10.30;64.70;;;;;;5059197;28;20377;-68
2023/03/10 01:11:42;;;;;;;5.65;1.08;;;10.30;64.50;;;;;;5055965;28;20537;-69
2023/03/10 01:14:11;;;;;;;2.40;1.25;;;10.40;64.00;;;;;;5053940;28;20052;-69
2023/03/10 01:16:37;;;;;;;2.78;1.20;;;10.40;64.30;;;;;;5053169;28;20028;-69
2023/03/10 01:19:03;;;;;;;3.30;1.70;;;10.40;64.10;;;;;;5053233;28;20021;-68
2023/03/10 01:21:31;;;;;;;5.03;2.30;;;10.40;64.00;;;;;;5052849;28;20392;-70
2023/03/10 01:23:58;;;;;;;5.97;2.72;;;10.30;65.90;;;;;;5053425;28;20059;-69
2023/03/10 01:26:23;;;;;;;8.98;3.45;;;10.30;67.50;;;;;;5053501;28;20485;-68
2023/03/10 01:28:49;;;;;;;8.07;3.60;;;10.10;69.20;;;;;;5053066;28;20057;-69
2023/03/10 01:31:16;;;;;;;8.18;3.38;;;10.10;70.00;;;;;;5035424;28;20037;-69
2023/03/10 01:33:42;;;;;;;10.05;3.75;;;10.00;70.70;;;;;;5052678;28;20517;-68
2023/03/10 01:36:10;;;;;;;8.98;3.45;;;10.00;71.20;;;;;;5044230;28;20038;-69
2023/03/10 01:38:37;;;;;;;7.70;3.47;;;9.90;71.60;;;;;;5037994;28;20046;-70
2023/03/10 01:41:03;;;;;;;6.13;3.60;;;9.90;71.80;;;;;;5042230;28;20029;-68
2023/03/10 01:43:40;;;;;;;7.82;3.47;;;9.80;71.70;;;;;;5042283;28;20037;-69
2023/03/10 01:46:30;;;;;;;8.73;3.70;;;9.80;72.10;;;;;;5041547;28;20036;-69
2023/03/10 01:49:00;;;;;;;9.07;3.55;;;9.70;72.10;;;;;;5040217;28;20017;-69
2023/03/10 01:51:29;;;;;;;7.10;3.83;;;9.70;72.70;;;;;;5043111;28;20033;-69
2023/03/10 01:53:54;;;;;;;17.55;5.00;;;9.60;73.10;;;;;;5039541;28;20104;-68
2023/03/10 01:56:20;;;;;;;10.05;4.28;;;9.60;74.20;;;;;;5038092;28;20097;-69
2023/03/10 01:58:47;;;;;;;9.57;4.00;;;9.50;75.30;;;;;;5041389;28;20037;-70
2023/03/10 02:01:14;;;;;;;9.85;4.40;;;9.50;75.60;;;;;;5040356;28;20355;-69
2023/03/10 02:03:52;;;;;;;8.20;4.72;;;9.50;75.90;;;;;;5040664;28;20404;-68
2023/03/10 02:06:20;;;;;;;8.95;4.88;;;9.40;76.20;;;;;;5039422;28;20025;-69
2023/03/10 02:08:57;;;;;;;10.25;4.60;;;9.30;77.30;;;;;;5039580;28;20025;-68
2023/03/10 02:11:23;;;;;;;9.88;4.50;;;9.30;78.40;;;;;;5042741;28;20044;-68
2023/03/10 02:13:48;;;;;;;10.50;4.20;;;9.20;79.00;;;;;;5036806;28;20044;-69
2023/03/10 02:16:16;;;;;;;9.95;4.60;;;9.20;78.90;;;;;;5040010;28;20025;-69
2023/03/10 02:18:44;;;;;;;12.70;4.80;;;9.10;78.80;;;;;;5044528;28;20112;-69
2023/03/10 02:21:24;;;;;;;14.52;4.78;;;9.10;79.00;;;;;;5040172;28;20037;-69
2023/03/10 02:24:02;;;;;;;11.90;4.47;;;9.00;79.70;;;;;;5042072;28;20061;-69
2023/03/10 02:26:34;;;;;;;8.45;4.50;;;9.00;79.70;;;;;;5042344;28;20047;-69
2023/03/10 02:29:03;;;;;;;10.30;3.92;;;9.00;80.10;;;;;;5040856;28;20026;-69
2023/03/10 02:31:29;;;;;;;9.45;3.67;;;8.90;79.60;;;;;;5040720;28;20443;-69
2023/03/10 02:33:55;;;;;;;8.55;4.53;;;8.80;79.30;;;;;;5041331;28;20013;-69
2023/03/10 02:36:23;;;;;;;8.13;4.13;;;8.90;78.70;;;;;;5040846;28;20049;-69
2023/03/10 02:38:49;;;;;;;6.78;3.47;;;8.90;78.10;;;;;;5042224;28;20091;-68
2023/03/10 02:41:28;;;;;;;6.65;3.92;;;8.80;79.10;;;;;;5039558;28;20068;-69
2023/03/10 02:43:56;;;;;;;6.68;3.53;;;8.70;78.90;;;;;;5039798;28;20057;-69
2023/03/10 02:46:22;;;;;;;5.72;3.17;;;8.70;77.90;;;;;;5048897;28;20113;-68
2023/03/10 02:48:48;;;;;;;6.78;3.30;;;8.70;77.20;;;;;;5051704;28;20044;-68
2023/03/10 02:51:24;;;;;;;7.00;3.55;;;8.60;77.00;;;;;;5051511;28;20037;-69
2023/03/10 02:53:50;;;;;;;7.93;3.70;;;8.70;75.80;;;;;;5024218;28;20223;-69
2023/03/10 02:56:16;;;;;;;7.93;3.00;;;8.60;75.70;;;;;;5041553;28;20025;-69
2023/03/10 02:58:41;;;;;;;7.00;3.50;;;8.60;75.70;;;;;;5038600;28;20027;-69
2023/03/10 03:01:07;;;;;;;7.18;3.40;;;8.50;76.20;;;;;;5041681;28;20036;-70
2023/03/10 03:03:33;;;;;;;12.45;3.67;;;8.50;76.50;;;;;;5040050;28;20364;-69
2023/03/10 03:05:59;;;;;;;7.88;3.22;;;8.40;77.00;;;;;;5046149;28;20521;-69
2023/03/10 03:08:25;;;;;;;7.28;2.97;;;8.40;77.30;;;;;;5052463;28;20088;-68
2023/03/10 03:10:51;;;;;;;7.28;3.38;;;8.40;77.00;;;;;;5051930;28;20237;-69
2023/03/10 03:13:17;;;;;;;8.80;3.17;;;8.40;76.80;;;;;;5052312;28;20458;-69
2023/03/10 03:15:43;;;;;;;7.05;3.47;;;8.30;76.10;;;;;;5051873;28;20025;-68
2023/03/10 03:18:09;;;;;;;9.90;3.08;;;8.30;76.40;;;;;;5036995;28;20103;-68
2023/03/10 03:20:37;;;;;;;6.53;3.10;;;8.30;76.00;;;;;;5055479;28;20036;-68
2023/03/10 03:23:03;;;;;;;8.10;3.13;;;8.30;75.40;;;;;;5054662;28;20065;-68
2023/03/10 03:25:29;;;;;;;6.00;2.60;;;8.30;75.80;;;;;;5035789;28;20064;-68
2023/03/10 03:27:56;;;;;;;10.93;3.15;;;8.30;75.00;;;;;;5035087;28;20036;-69
2023/03/10 03:30:25;;;;;;;5.10;2.50;;;8.20;73.90;;;;;;5035627;28;20030;-70
2023/03/10 03:32:51;;;;;;;6.28;2.50;;;8.20;74.70;;;;;;5035431;28;20392;-70
2023/03/10 03:35:23;;;;;;;4.63;2.45;;;8.20;73.70;;;;;;5035724;28;20025;-70
2023/03/10 03:37:49;;;;;;;5.90;2.75;;;8.20;73.70;;;;;;5035361;28;20025;-70
2023/03/10 03:40:16;;;;;;;5.13;2.80;;;8.20;73.00;;;;;;5035426;28;20473;-68
2023/03/10 03:42:47;;;;;;;5.30;2.50;;;8.20;73.00;;;;;;5035193;28;20037;-70
2023/03/10 03:45:16;;;;;;;4.78;2.10;;;8.10;73.40;;;;;;5035538;28;20025;-68
2023/03/10 03:47:42;;;;;;;6.22;2.20;;;8.10;73.50;;;;;;5035105;28;20101;-70
2023/03/10 03:50:10;;;;;;;7.63;2.83;;;8.20;73.10;;;;;;5035712;28;20036;-70
2023/03/10 03:52:36;;;;;;;8.48;1.98;;;8.10;72.50;;;;;;5035005;28;20116;-70
2023/03/10 03:55:03;;;;;;;4.15;2.00;;;8.10;72.90;;;;;;5035380;28;20025;-70
2023/03/10 03:57:28;;;;;;;7.38;2.20;;;8.10;72.80;;;;;;5035295;28;20025;-70
2023/03/10 03:59:54;;;;;;;7.07;2.10;;;8.10;72.80;;;;;;5034492;28;20032;-69
2023/03/10 04:02:20;;;;;;;3.72;1.98;;;8.00;73.20;;;;;;5017353;28;20048;-69
2023/03/10 04:04:45;;;;;;;6.60;2.22;;;8.00;73.10;;;;;;5034584;28;20033;-70
2023/03/10 04:07:11;;;;;;;7.97;2.35;;;8.00;73.20;;;;;;5035256;28;20029;-69
2023/03/10 04:09:38;;;;;;;6.68;2.72;;;8.10;73.30;;;;;;5017064;28;20079;-73
2023/03/10 04:12:05;;;;;;;4.53;2.28;;;8.00;73.40;;;;;;5034876;28;20033;-68
2023/03/10 04:14:32;;;;;;;7.28;2.60;;;8.00;74.00;;;;;;5017175;28;20112;-69
2023/03/10 04:16:58;;;;;;;5.25;2.67;;;8.00;73.50;;;;;;5016889;28;20580;-70
2023/03/10 04:19:23;;;;;;;5.07;2.35;;;7.90;74.00;;;;;;5034690;28;20033;-70
2023/03/10 04:21:49;;;;;;;9.02;2.80;;;7.90;74.30;;;;;;5034199;28;20077;-69
2023/03/10 04:24:15;;;;;;;6.72;2.40;;;7.90;74.70;;;;;;5034993;28;20029;-70
2023/03/10 04:26:40;;;;;;;6.43;2.60;;;7.80;74.70;;;;;;5034116;28;20417;-73
2023/03/10 04:29:06;;;;;;;4.97;2.28;;;7.80;75.10;;;;;;5034529;28;20477;-71
2023/03/10 04:31:32;;;;;;;6.40;3.03;;;7.80;75.30;;;;;;5046655;28;20025;-69
2023/03/10 04:33:57;;;;;;;5.10;2.35;;;7.70;75.60;;;;;;5054057;28;20622;-69
2023/03/10 04:36:23;;;;;;;4.85;2.92;;;7.70;75.50;;;;;;5056713;28;20044;-68
2023/03/10 04:38:49;;;;;;;7.43;2.80;;;7.70;75.40;;;;;;5054895;28;20073;-69
2023/03/10 04:41:16;;;;;;;5.97;2.40;;;7.70;75.30;;;;;;5054750;28;20041;-69
2023/03/10 04:43:42;;;;;;;7.05;2.15;;;7.70;75.30;;;;;;5054029;28;20029;-69
2023/03/10 04:46:08;;;;;;;5.18;2.15;;;7.70;75.00;;;;;;5054592;28;20366;-69
2023/03/10 04:48:34;;;;;;;3.90;2.10;;;7.70;75.10;;;;;;5054676;28;20029;-69
2023/03/10 04:51:02;;;;;;;5.88;2.50;;;7.70;75.30;;;;;;5053895;28;20458;-69
2023/03/10 04:53:28;;;;;;;5.85;2.28;;;7.60;75.10;;;;;;5053969;28;20021;-69
2023/03/10 04:55:54;;;;;;;6.05;2.33;;;7.60;75.60;;;;;;5035474;28;20025;-69
2023/03/10 04:58:21;;;;;;;7.97;2.45;;;7.60;75.40;;;;;;5054040;28;20032;-69
2023/03/10 05:00:48;;;;;;;6.28;2.53;;;7.60;75.50;;;;;;5053538;28;20078;-69
2023/03/10 05:03:14;;;;;;;4.65;2.38;;;7.60;76.30;;;;;;5054241;28;20071;-69
2023/03/10 05:05:41;;;;;;;5.82;2.60;;;7.60;76.70;;;;;;5054028;28;20032;-69
2023/03/10 05:08:07;;;;;;;11.63;2.67;;;7.60;77.00;;;;;;5053182;28;20040;-69
2023/03/10 05:10:32;;;;;;;7.82;2.95;;;7.60;76.70;;;;;;5054065;28;20032;-69
2023/03/10 05:12:58;;;;;;;6.38;2.60;;;7.60;76.30;;;;;;5053460;28;20029;-69
2023/03/10 05:15:24;;;;;;;6.70;3.20;;;7.70;76.60;;;;;;5053542;28;20060;-69
2023/03/10 05:17:50;;;;;;;6.82;2.67;;;7.80;76.10;;;;;;5053247;28;20107;-69
2023/03/10 05:20:16;;;;;;;9.07;3.42;;;7.70;76.90;;;;;;5053360;28;20156;-69
2023/03/10 05:22:42;;;;;;;9.65;3.22;;;7.70;77.00;;;;;;5053599;28;20091;-69
2023/03/10 05:25:10;;;;;;;7.22;3.10;;;7.70;77.40;;;;;;5053217;28;20035;-69
2023/03/10 05:27:37;;;;;;;5.28;3.08;;;7.70;77.60;;;;;;5053508;28;20044;-69
2023/03/10 05:30:08;;;;;;;8.32;3.05;;;7.80;77.70;;;;;;5053173;28;20029;-69
2023/03/10 05:32:35;;;;;;;8.48;2.80;;;7.70;78.10;;;;;;5053642;28;20033;-69
2023/03/10 05:35:02;;;;;;;10.98;3.28;;;7.70;78.30;;;;;;5052899;28;20025;-69
2023/03/10 05:37:28;;;;;;;6.15;3.40;;;7.70;78.00;;;;;;5053560;28;20478;-69
2023/03/10 05:39:53;;;;;;;5.70;3.03;;;7.70;78.10;;;;;;5052316;28;20049;-69
2023/03/10 05:42:20;;;;;;;7.65;3.00;;;7.70;78.30;;;;;;5053136;28;20037;-69
2023/03/10 05:44:45;;;;;;;9.93;3.35;;;7.70;78.40;;;;;;5052766;28;20036;-70
2023/03/10 05:47:12;;;;;;;7.10;3.13;;;7.70;78.60;;;;;;5052987;28;20029;-70
2023/03/10 05:49:38;;;;;;;7.60;3.10;;;7.70;78.80;;;;;;5053291;28;20373;-69
2023/03/10 05:52:05;;;;;;;9.13;3.42;;;7.60;78.70;;;;;;5052856;28;20063;-69
2023/03/10 05:54:31;;;;;;;7.57;3.22;;;7.60;79.00;;;;;;5052838;28;20123;-69
2023/03/10 05:56:57;;;;;;;13.18;5.43;;;7.60;78.60;;;;;;5052708;28;20043;-69
2023/03/10 05:59:22;;;;;;;8.65;3.63;;;7.60;78.90;;;;;;5053173;28;20021;-69
2023/03/10 06:01:48;;;;;;;8.13;3.05;;;7.60;78.60;;;;;;5052452;28;20033;-70
2023/03/10 06:04:14;;;;;;;10.45;3.28;;;7.60;78.60;;;;;;5052669;28;20021;-69
2023/03/10 06:06:39;;;;;;;6.35;3.50;;;7.60;77.80;;;;;;5052975;28;20079;-69
2023/03/10 06:09:06;;;;;;;10.48;3.42;;;7.60;77.90;;;;;;5052468;28;20025;-69
2023/03/10 06:11:32;;;;;;;8.25;3.50;;;7.50;77.30;;;;;;5052787;28;20024;-69
2023/03/10 06:13:58;;;;;;;6.78;3.22;;;7.50;77.60;;;;;;5034729;28;20107;-69
2023/03/10 06:16:24;;;;;;;10.82;3.30;;;7.50;78.00;;;;;;5052892;28;20160;-69
2023/03/10 06:18:56;;;;;;;6.28;3.17;;;7.50;77.00;;;;;;5052389;28;20036;-69
2023/03/10 06:21:22;;;;;;;6.20;2.72;;;7.50;77.40;;;;;;5052369;28;20036;-69
2023/03/10 06:23:48;;;;;;;4.90;2.55;;;7.60;76.20;;;;;;5052312;28;20098;-75
2023/03/10 06:26:15;;;;;;;6.18;2.75;;;7.60;76.00;;;;;;5036352;28;20159;-69
2023/03/10 06:28:44;;;;;;;7.90;3.05;;;7.60;75.60;;;;;;5032292;28;20485;-69
2023/03/10 06:31:20;;;;;;;5.82;2.90;;;7.60;75.50;;;;;;5032200;28;20033;-69
2023/03/10 06:33:46;;;;;;;10.10;3.05;;;7.60;75.20;;;;;;5032686;28;20470;-69
2023/03/10 06:36:14;;;;;;;6.53;2.90;;;7.60;76.10;;;;;;5032402;28;20441;-69
2023/03/10 06:38:40;;;;;;;4.55;2.70;;;7.60;75.80;;;;;;5032553;28;20054;-69
2023/03/10 06:41:06;;;;;;;8.48;3.63;;;7.60;75.80;;;;;;5032221;28;20021;-69
2023/03/10 06:43:33;;;;;;;6.55;2.92;;;7.70;75.80;;;;;;5032422;28;20029;-69
2023/03/10 06:46:03;;;;;;;5.90;2.65;;;7.70;76.20;;;;;;5032388;28;20113;-69
2023/03/10 06:48:29;;;;;;;6.93;3.05;;;7.80;76.30;;;;;;5032729;28;20537;-69
2023/03/10 06:50:54;;;;;;;8.77;3.20;;;7.90;75.70;;;;;;5032466;28;20109;-69
2023/03/10 06:53:21;;;;;;;8.23;3.17;;;8.00;75.10;;;;;;5042090;28;20354;-69
2023/03/10 06:56:19;;;;;;;11.38;3.60;;;8.00;75.40;;;;;;5056510;28;20025;-69
2023/03/10 06:58:45;;;;;;;6.78;3.15;;;8.10;75.20;;;;;;5056675;28;20053;-69
2023/03/10 07:01:32;;;;;;;7.32;3.25;;;8.20;75.30;;;;;;5056086;28;20083;-69
2023/03/10 07:03:59;;;;;;;11.05;3.70;;;8.30;75.60;;;;;;5038494;28;20374;-68
2023/03/10 07:06:26;;;;;;;6.97;3.20;;;8.40;75.40;;;;;;5038727;28;20036;-69
2023/03/10 07:08:53;;;;;;;6.55;3.30;;;8.40;75.60;;;;;;5056436;28;20025;-69
2023/03/10 07:11:19;;;;;;;5.95;3.60;;;8.50;75.70;;;;;;5056362;28;20493;-69
2023/03/10 07:13:44;;;;;;;8.05;3.83;;;8.60;75.90;;;;;;5056756;28;20100;-70
2023/03/10 07:16:10;;;;;;;7.05;3.78;;;8.70;76.70;;;;;;5055937;28;20132;-68
2023/03/10 07:18:36;;;;;;;7.82;3.97;;;8.70;77.10;;;;;;5056373;28;20025;-70
2023/03/10 07:21:06;;;;;;;8.48;4.15;;;8.80;77.10;;;;;;5055777;28;20033;-69
2023/03/10 07:23:33;;;;;;;6.60;3.80;;;8.90;77.20;;;;;;5056122;28;20069;-69
2023/03/10 07:25:58;;;;;;;8.30;4.53;;;9.00;77.60;;;;;;5055604;28;20053;-69
2023/03/10 07:28:25;;;;;;;9.23;4.57;;;9.10;79.10;;;;;;5056139;28;20448;-69
2023/03/10 07:30:52;;;;;;;8.13;5.15;;;9.20;79.40;;;;;;5055642;28;20447;-69
2023/03/10 07:33:18;;;;;;;10.32;4.75;;;9.30;79.40;;;;;;5055334;28;20072;-69
2023/03/10 07:35:44;;;;;;;8.88;4.70;;;9.50;79.40;;;;;;5055466;28;20021;-67
2023/03/10 07:38:10;;;;;;;8.07;4.88;;;9.60;79.30;;;;;;5055195;28;20044;-69
2023/03/10 07:40:38;;;;;;;10.95;5.13;;;9.80;78.40;;;;;;5055560;28;20041;-69
2023/03/10 07:43:04;;;;;;;8.18;4.53;;;10.20;78.30;;;;;;5055174;28;20091;-69
2023/03/10 07:45:31;;;;;;;11.25;4.85;;;10.50;76.90;;;;;;5056016;28;20404;-69
2023/03/10 07:47:58;;;;;;;9.45;4.45;;;10.90;75.50;;;;;;5055061;28;20060;-72
2023/03/10 07:50:24;;;;;;;7.88;5.07;;;11.30;73.60;;;;;;5055451;28;20032;-69
2023/03/10 07:52:50;;;;;;;10.25;4.93;;;11.80;72.90;;;;;;5055457;28;20465;-69
2023/03/10 07:55:16;;;;;;;8.20;4.50;;;12.20;71.90;;;;;;5054692;28;20025;-68
2023/03/10 07:57:42;;;;;;;7.03;4.85;;;12.60;71.00;;;;;;5054930;28;20377;-68
2023/03/10 08:00:09;;;;;;;10.15;4.65;;;12.90;69.30;;;;;;5054499;28;20029;-68
2023/03/10 08:02:35;;;;;;;8.23;4.50;;;13.40;68.40;;;;;;5054729;28;20037;-68
2023/03/10 08:05:00;;;;;;;13.68;4.68;;;13.80;66.10;;;;;;5051491;28;20104;-69
2023/03/10 08:07:26;;;;;;;8.98;5.47;;;14.20;65.00;;;;;;5055293;28;20486;-68
2023/03/10 08:09:53;;;;;;;11.73;5.38;;;14.40;62.90;;;;;;5055202;28;20428;-69
2023/03/10 08:12:20;;;;;;;9.30;4.90;;;15.00;62.80;;;;;;5054833;28;20033;-69
2023/03/10 08:14:47;;;;;;;11.73;5.78;;;15.60;61.50;;;;;;5054853;28;20029;-69
2023/03/10 08:17:13;;;;;;;11.93;5.40;;;16.40;58.80;;;;;;5054893;28;20057;-68
2023/03/10 08:19:39;;;;;;;10.88;5.88;;;17.30;56.90;;;;;;5054950;28;20028;-70
2023/03/10 08:22:04;;;;;;;12.40;5.45;;;18.50;54.10;;;;;;5054139;28;20041;-69
2023/03/10 08:24:30;;;;;;;11.30;5.40;;;19.50;51.70;;;;;;5048718;28;20031;-68
2023/03/10 08:26:56;;;;;;;7.53;5.07;;;19.70;49.60;;;;;;5053200;28;20057;-68
2023/03/10 08:29:22;;;;;;;7.45;5.10;;;19.80;48.50;;;;;;5054432;28;20029;-69
2023/03/10 08:31:48;;;;;;;10.88;4.95;;;19.50;48.10;;;;;;5054834;28;20406;-68
2023/03/10 08:34:15;;;;;;;12.02;5.22;;;19.10;49.20;;;;;;5054341;28;20100;-68
2023/03/10 08:36:41;;;;;;;9.00;5.72;;;18.90;49.60;;;;;;5054310;28;20484;-68
2023/03/10 08:39:07;;;;;;;9.88;5.22;;;18.70;49.60;;;;;;5053860;28;20049;-68
2023/03/10 08:41:40;;;;;;;8.00;5.35;;;18.40;50.90;;;;;;5054375;28;20394;-68
2023/03/10 08:44:06;;;;;;;8.60;5.57;;;18.30;50.30;;;;;;5053770;28;20025;-68
2023/03/10 08:46:33;;;;;;;10.35;5.78;;;18.20;50.80;;;;;;5054746;28;20116;-69
2023/03/10 08:48:59;;;;;;;9.82;4.68;;;18.20;51.30;;;;;;5054408;28;20449;-69
2023/03/10 08:51:26;;;;;;;6.68;4.57;;;18.00;51.30;;;;;;5053844;28;20115;-69
2023/03/10 08:53:52;;;;;;;9.82;5.07;;;17.80;50.70;;;;;;5054150;28;20099;-69
2023/03/10 08:56:20;;;;;;;6.68;4.30;;;17.60;50.70;;;;;;5049071;28;20029;-69
2023/03/10 08:58:46;;;;;;;11.15;5.15;;;17.60;51.80;;;;;;5047173;28;20072;-68
2023/03/10 09:01:13;;;;;;;7.78;4.78;;;17.70;52.40;;;;;;5042355;28;20441;-69
2023/03/10 09:03:40;;;;;;;11.02;4.90;;;17.80;51.80;;;;;;5041181;28;20029;-69
2023/03/10 09:06:06;;;;;;;7.07;5.50;;;17.90;51.50;;;;;;5034819;28;20032;-70
2023/03/10 09:08:32;;;;;;;9.00;4.97;;;17.90;51.80;;;;;;5035114;28;20075;-68
2023/03/10 09:10:57;;;;;;;11.65;5.50;;;17.90;51.80;;;;;;5033714;28;20026;-71
2023/03/10 09:13:23;;;;;;;9.95;5.50;;;17.80;51.40;;;;;;5032738;28;20033;-71
2023/03/10 09:15:49;;;;;;;8.27;5.25;;;17.80;51.50;;;;;;5033075;28;20108;-69
2023/03/10 09:18:16;;;;;;;10.57;5.60;;;17.80;51.80;;;;;;5033314;28;20037;-69
2023/03/10 09:20:43;;;;;;;8.93;5.47;;;17.80;51.70;;;;;;5016154;28;20446;-69
2023/03/10 09:23:10;;;;;;;9.25;4.95;;;17.70;50.60;;;;;;5033357;28;20038;-69
2023/03/10 09:25:39;;;;;;;9.40;4.97;;;17.80;50.20;;;;;;5033575;28;20489;-69
2023/03/10 09:28:06;;;;;;;17.30;5.72;;;17.70;50.40;;;;;;5033641;28;20461;-72
2023/03/10 09:30:36;;;;;;;7.53;4.47;;;17.70;50.60;;;;;;5033750;28;20108;-69
2023/03/10 09:33:03;;;;;;;8.73;4.97;;;17.80;50.10;;;;;;5033768;28;20025;-69
2023/03/10 09:35:29;;;;;;;11.80;5.22;;;17.90;50.10;;;;;;5033090;28;20078;-70
2023/03/10 09:37:55;;;;;;;8.13;4.68;;;17.90;49.80;;;;;;5033428;28;20385;-70
2023/03/10 09:40:20;;;;;;;11.07;4.72;;;18.10;49.90;;;;;;5032907;28;20036;-70
2023/03/10 09:42:52;;;;;;;12.00;5.13;;;18.30;49.30;;;;;;5033535;28;20037;-69
2023/03/10 09:45:44;;;;;;;11.23;5.40;;;18.40;49.60;;;;;;5032900;28;20030;-70
2023/03/10 09:48:27;;;;;;;9.82;5.25;;;18.40;48.80;;;;;;5031897;28;20045;-70
2023/03/10 09:50:55;;;;;;;10.02;5.03;;;18.40;48.40;;;;;;5033384;28;20029;-68
2023/03/10 09:53:51;;;;;;;13.23;5.88;;;18.30;48.70;;;;;;5032802;28;20136;-70
2023/03/10 09:56:21;;;;;;;8.38;4.45;;;18.40;48.10;;;;;;5033233;28;20052;-70
2023/03/10 09:59:01;;;;;;;8.85;4.35;;;18.30;47.90;;;;;;5033092;28;20473;-69
2023/03/10 10:01:30;;;;;;;8.45;4.65;;;18.30;47.50;;;;;;5032603;28;20025;-69
2023/03/10 10:04:03;;;;;;;12.35;5.50;;;18.40;47.70;;;;;;5033093;28;20033;-68
2023/03/10 10:06:36;;;;;;;13.50;6.05;;;18.60;47.80;;;;;;5033073;28;20095;-69
2023/03/10 10:09:10;;;;;;;6.88;4.72;;;18.50;47.80;;;;;;5033134;28;20052;-69
2023/03/10 10:11:36;;;;;;;9.90;4.68;;;18.60;48.00;;;;;;5033102;28;20038;-69
2023/03/10 10:14:15;;;;;;;10.88;4.90;;;18.60;47.50;;;;;;5033192;28;20032;-69
2023/03/10 10:16:56;;;;;;;9.20;5.15;;;18.70;47.60;;;;;;5032852;28;20021;-69
2023/03/10 10:19:24;;;;;;;8.97;4.53;;;18.70;47.10;;;;;;5032435;28;20060;-69
2023/03/10 10:22:24;;;;;;;12.30;5.93;;;18.90;48.10;;;;;;5032806;28;20037;-69
2023/03/10 10:25:08;;;;;;;10.90;6.47;;;19.00;48.00;;;;;;5044700;28;20531;-69
2023/03/10 10:27:38;;;;;;;10.40;6.10;;;19.10;48.10;;;;;;5052282;28;20029;-69
2023/03/10 10:30:24;;;;;;;10.43;5.87;;;19.20;48.60;;;;;;5052573;28;20021;-69
2023/03/10 10:33:09;;;;;;;12.55;6.20;;;19.30;47.90;;;;;;5052432;28;20029;-69
2023/03/10 10:35:38;;;;;;;19.55;6.07;;;19.20;47.50;;;;;;5052368;28;20135;-69
2023/03/10 10:38:09;;;;;;;16.33;7.25;;;19.30;47.60;;;;;;5052555;28;20080;-69
2023/03/10 10:40:46;;;;;;;15.67;6.20;;;19.20;47.20;;;;;;5052318;28;20490;-68
2023/03/10 10:43:18;;;;;;;13.35;6.88;;;19.20;47.10;;;;;;5052036;28;20746;-69
2023/03/10 10:45:44;;;;;;;;;;;19.00;47.00;;;;;;5052929;28;20025;-69
2023/03/10 10:48:40;;;;;;;14.43;6.55;;;19.00;46.60;;;;;;5052551;28;19916;-69
2023/03/10 10:51:26;;;;;;;12.25;6.55;;;19.00;46.50;;;;;;5050506;28;20529;-69
2023/03/10 10:53:51;;;;;;;11.90;6.18;;;19.20;48.40;;;;;;5052532;28;20025;-69
2023/03/10 10:56:18;;;;;;;10.32;5.95;;;19.20;47.00;;;;;;5052345;28;20029;-69
2023/03/10 10:59:04;;;;;;;13.02;6.82;;;19.20;47.10;;;;;;5052655;28;20025;-68
2023/03/10 11:02:30;;;;;;;8.93;6.07;;;19.20;47.80;;;;;;5052069;28;20045;-70
2023/03/10 11:05:12;;;;;;;13.10;5.80;;;19.10;47.80;;;;;;4945140;29;20134;-69
2023/03/10 11:07:37;;;;;;;14.25;5.50;;;18.90;47.70;;;;;;5052159;28;20028;-70
2023/03/10 11:10:15;;;;;;;9.40;5.25;;;18.70;48.30;;;;;;5052268;28;20021;-69
2023/03/10 11:13:21;;;;;;;11.05;6.13;;;18.70;48.70;;;;;;5052194;28;20469;-69
2023/03/10 11:16:04;;;;;;;8.45;5.65;;;18.90;48.70;;;;;;5052267;28;20036;-70
2023/03/10 11:18:37;;;;;;;8.77;5.30;;;19.20;49.30;;;;;;5051722;28;20424;-69
2023/03/10 11:21:17;;;;;;;11.07;5.55;;;19.30;49.10;;;;;;5052213;28;20032;-69
2023/03/10 11:24:11;;;;;;;8.00;3.90;;;19.40;47.50;;;;;;5052200;28;20033;-69
2023/03/10 11:26:55;;;;;;;8.68;3.80;;;19.40;46.50;;;;;;5052017;28;20033;-68
2023/03/10 11:29:46;;;;;;;7.93;3.33;;;19.50;46.40;;;;;;5051782;28;20100;-69
2023/03/10 11:32:22;;;;;;;7.35;3.97;;;19.50;46.60;;;;;;5046262;28;20055;-69
2023/03/10 11:34:52;;;;;;;6.95;3.70;;;19.70;46.60;;;;;;5051472;28;20108;-69
2023/03/10 11:37:23;;;;;;;9.25;3.08;;;19.70;45.50;;;;;;5051417;28;20025;-69
2023/03/10 11:40:06;;;;;;;;;;;19.70;45.60;;;;;;5056134;28;20045;-69
2023/03/10 11:42:58;;;;;;;9.23;2.78;;;19.80;45.10;;;;;;5055082;28;19920;-68
2023/03/10 11:45:30;;;;;;;8.25;2.85;;;19.90;44.10;;;;;;5037440;28;20041;-69
2023/03/10 11:48:32;;;;;;;6.07;2.33;;;19.80;43.40;;;;;;5055694;28;20071;-69
2023/03/10 11:51:02;;;;;;;5.85;2.33;;;19.70;43.60;;;;;;5055365;28;20029;-68
2023/03/10 11:53:37;;;;;;;6.55;1.60;;;19.70;43.40;;;;;;5054716;28;20092;-69
2023/03/10 11:56:05;;;;;;;4.32;2.10;;;19.30;43.20;;;;;;5055243;28;20051;-68
2023/03/10 11:58:48;;;;;;;4.68;1.70;;;19.20;44.20;;;;;;5055136;28;20025;-68
2023/03/10 12:01:37;;;;;;;3.53;1.48;;;19.10;44.70;;;;;;5054838;28;20036;-69
2023/03/10 12:04:06;;;;;;;4.93;1.88;;;19.10;44.90;;;;;;5055121;28;20029;-69
2023/03/10 12:06:43;;;;;;;5.75;1.63;;;19.00;44.80;;;;;;5054608;28;20033;-68
2023/03/10 12:09:28;;;;;;;6.20;2.03;;;18.70;45.40;;;;;;5055268;28;20128;-69
2023/03/10 12:11:55;;;;;;;4.70;1.63;;;18.60;46.40;;;;;;5039353;28;20033;-69
2023/03/10 12:14:23;;;;;;;5.82;1.55;;;18.60;46.60;;;;;;5054563;28;20056;-69
2023/03/10 12:16:50;;;;;;;1.88;1.40;;;18.60;46.10;;;;;;5054848;28;20116;-69
2023/03/10 12:19:16;;;;;;;6.65;1.80;;;18.50;46.60;;;;;;5056864;28;20025;-69
2023/03/10 12:21:41;;;;;;;4.13;1.48;;;18.50;46.70;;;;;;5057569;28;20108;-69
2023/03/10 12:24:46;;;;;;;5.18;2.10;;;18.30;47.60;;;;;;5057239;28;20033;-69
2023/03/10 12:27:12;;;;;;;5.35;1.52;;;18.40;47.30;;;;;;5053526;28;20383;-69
2023/03/10 12:29:39;;;;;;;2.80;1.60;;;18.40;48.20;;;;;;5034436;28;20475;-70
2023/03/10 12:32:25;;;;;;;7.32;2.03;;;18.40;46.90;;;;;;5034902;28;20397;-69
2023/03/10 12:35:31;;;;;;;3.22;1.77;;;18.30;47.30;;;;;;5034628;28;20113;-69
2023/03/10 12:38:48;;;;;;;6.68;2.13;;;18.40;47.70;;;;;;5033832;28;20033;-70
2023/03/10 12:41:36;;;;;;;6.43;1.63;;;18.40;47.40;;;;;;4990100;28;20040;-69
2023/03/10 12:44:29;;;;;;;3.88;1.50;;;18.20;47.80;;;;;;5016275;28;20374;-71
2023/03/10 12:46:54;;;;;;;3.55;1.80;;;18.30;48.20;;;;;;5034488;28;20083;-69
2023/03/10 12:49:56;;;;;;;4.25;2.15;;;18.40;48.40;;;;;;5032923;28;20029;-71
2023/03/10 12:52:37;;;;;;;4.60;1.60;;;18.40;48.10;;;;;;5034023;28;20060;-69
2023/03/10 12:55:04;;;;;;;;;;;18.20;48.20;;;;;;5034786;28;20097;-69
2023/03/10 12:57:55;;;;;;;4.55;1.60;;;18.00;48.60;;;;;;5034663;28;20087;-69
2023/03/10 13:00:33;;;;;;;5.00;1.85;;;17.80;49.00;;;;;;5054070;28;20025;-70
2023/03/10 13:03:12;;;;;;;6.63;1.65;;;17.60;49.00;;;;;;5054051;28;20128;-70
2023/03/10 13:05:53;;;;;;;3.22;1.80;;;17.60;48.50;;;;;;5054047;28;20035;-70